createdAt,value
2019-01-18T00:01:24.388Z,97750.38
2019-01-18T00:03:53.276Z,97749.52
2019-01-18T00:06:22.192Z,97748.66
2019-01-18T00:08:51.152Z,97751.67
2019-01-18T00:11:20.214Z,97757.27
2019-01-18T00:13:49.245Z,97756.80
2019-01-18T00:16:18.139Z,97764.52
2019-01-18T00:18:47.067Z,97771.41
2019-01-18T00:21:16.207Z,97775.28
2019-01-18T00:23:45.157Z,97790.36
2019-01-18T00:26:14.102Z,97798.98
2019-01-18T00:28:43.071Z,97795.09
2019-01-18T00:31:11.939Z,97809.78
2019-01-18T00:33:40.767Z,97796.04
2019-01-18T00:36:09.670Z,97796.04
2019-01-18T00:38:38.537Z,97797.77
2019-01-18T00:41:07.682Z,97800.34
2019-01-18T00:43:36.536Z,97796.04
2019-01-18T00:46:05.602Z,97808.96
2019-01-18T00:48:34.462Z,97811.55
2019-01-18T00:51:03.286Z,97816.25
2019-01-18T00:53:32.100Z,97817.97
2019-01-18T00:56:00.968Z,97824.00
2019-01-18T00:58:29.931Z,97830.84
2019-01-18T01:00:58.900Z,97827.40
2019-01-18T01:03:27.842Z,97830.89
2019-01-18T01:05:56.771Z,97833.91
2019-01-18T01:08:25.634Z,97839.08
2019-01-18T01:10:54.545Z,97854.58
2019-01-18T01:13:23.431Z,97848.16
2019-01-18T01:15:52.377Z,97858.08
2019-01-18T01:18:21.194Z,97859.80
2019-01-18T01:20:50.102Z,97858.08
2019-01-18T01:23:19.138Z,97862.81
2019-01-18T01:25:47.974Z,97858.08
2019-01-18T01:28:16.901Z,97868.42
2019-01-18T01:30:45.919Z,97873.16
2019-01-18T01:33:14.745Z,97873.58
2019-01-18T01:35:43.565Z,97882.20
2019-01-18T01:38:12.363Z,97884.36
2019-01-18T01:40:41.266Z,97893.02
2019-01-18T01:43:10.146Z,97899.48
2019-01-18T01:45:39.177Z,97905.08
2019-01-18T01:48:08.347Z,97907.67
2019-01-18T01:50:37.288Z,97903.79
2019-01-18T01:53:06.377Z,97908.53
2019-01-18T01:55:35.219Z,97911.98
2019-01-18T01:58:04.982Z,97915.42
2019-01-18T02:00:34.099Z,97922.75
2019-01-18T02:03:02.997Z,97930.93
2019-01-18T02:05:31.963Z,97933.95
2019-01-18T02:08:00.776Z,97934.82
2019-01-18T02:10:29.903Z,97933.96
2019-01-18T02:12:58.879Z,97939.52
2019-01-18T02:15:28.097Z,97941.27
2019-01-18T02:17:57.033Z,97938.63
2019-01-18T02:20:26.053Z,97948.50
2019-01-18T02:22:55.872Z,97946.81
2019-01-18T02:25:24.888Z,97947.68
2019-01-18T02:27:53.743Z,97958.83
2019-01-18T02:30:32.694Z,97956.61
2019-01-18T02:33:01.587Z,97967.36
2019-01-18T02:35:30.643Z,97962.62
2019-01-18T02:37:59.470Z,97967.37
2019-01-18T02:40:28.412Z,97975.50
2019-01-18T02:42:57.208Z,97978.94
2019-01-18T02:45:26.100Z,97984.10
2019-01-18T02:47:54.925Z,97982.38
2019-01-18T02:50:23.968Z,97984.54
2019-01-18T02:52:52.920Z,97990.55
2019-01-18T02:55:28.537Z,97987.97
2019-01-18T02:57:52.532Z,97988.77
2019-01-18T03:00:23.340Z,97994.78
2019-01-18T03:02:52.484Z,98006.77
2019-01-18T03:05:24.715Z,98002.44
2019-01-18T03:07:53.676Z,98001.50
2019-01-18T03:10:24.834Z,98004.44
2019-01-18T03:12:53.761Z,98018.14
2019-01-18T03:15:22.881Z,98021.98
2019-01-18T03:17:51.757Z,98038.32
2019-01-18T03:20:20.788Z,98049.97
2019-01-18T03:22:49.721Z,98043.16
2019-01-18T03:25:21.147Z,98056.51
2019-01-18T03:27:49.972Z,98056.52
2019-01-18T03:30:20.695Z,98064.28
2019-01-18T03:32:49.734Z,98066.86
2019-01-18T03:35:19.808Z,98076.42
2019-01-18T03:37:48.688Z,98078.16
2019-01-18T03:40:19.795Z,98087.61
2019-01-18T03:42:48.949Z,98081.64
2019-01-18T03:45:18.873Z,98093.75
2019-01-18T03:47:48.146Z,98102.80
2019-01-18T03:50:19.729Z,98111.84
2019-01-18T03:52:48.554Z,98112.69
2019-01-18T03:55:17.493Z,98120.86
2019-01-18T03:57:46.463Z,98121.73
2019-01-18T04:00:25.306Z,98128.16
2019-01-18T04:02:48.579Z,98134.65
2019-01-18T04:05:17.649Z,98141.17
2019-01-18T04:07:46.812Z,98145.89
2019-01-18T04:10:18.181Z,98154.46
2019-01-18T04:12:47.319Z,98161.34
2019-01-18T04:15:17.918Z,98166.95
2019-01-18T04:17:46.770Z,98169.58
2019-01-18T04:20:17.875Z,98173.83
2019-01-18T04:22:46.856Z,98175.09
2019-01-18T04:25:19.334Z,98177.70
2019-01-18T04:27:48.320Z,98193.22
2019-01-18T04:30:19.072Z,98197.08
2019-01-18T04:32:48.005Z,98204.34
2019-01-18T04:35:16.944Z,98210.72
2019-01-18T04:37:45.923Z,98213.21
2019-01-18T04:40:20.015Z,98214.03
2019-01-18T04:42:48.855Z,98225.54
2019-01-18T04:45:17.943Z,98231.42
2019-01-18T04:47:46.798Z,98237.81
2019-01-18T04:50:17.965Z,98238.19
2019-01-18T04:52:47.160Z,98240.27
2019-01-18T04:55:16.233Z,98251.46
2019-01-18T04:57:45.088Z,98248.02
2019-01-18T05:00:19.215Z,98254.03
2019-01-18T05:02:48.161Z,98260.86
2019-01-18T05:05:17.039Z,98265.95
2019-01-18T05:07:45.904Z,98267.67
2019-01-18T05:10:15.856Z,98286.63
2019-01-18T05:12:44.739Z,98291.69
2019-01-18T05:15:21.358Z,98314.02
2019-01-18T05:17:50.206Z,98314.02
2019-01-18T05:20:20.484Z,98313.91
2019-01-18T05:22:49.449Z,98322.38
2019-01-18T05:25:18.309Z,98328.61
2019-01-18T05:27:47.119Z,98340.05
2019-01-18T05:30:47.470Z,98342.91
2019-01-18T05:33:13.249Z,98350.98
2019-01-18T05:35:42.143Z,98356.33
2019-01-18T05:38:10.901Z,98363.54
2019-01-18T05:40:39.832Z,98366.48
2019-01-18T05:43:08.684Z,98373.58
2019-01-18T05:45:37.515Z,98373.97
2019-01-18T05:48:06.269Z,98377.70
2019-01-18T05:50:35.122Z,98381.86
2019-01-18T05:53:06.527Z,98383.89
2019-01-18T05:55:35.458Z,98393.66
2019-01-18T05:58:04.558Z,98401.69
2019-01-18T06:00:45.246Z,98405.05
2019-01-18T06:03:14.032Z,98405.34
2019-01-18T06:05:44.389Z,98412.95
2019-01-18T06:08:13.311Z,98416.20
2019-01-18T06:10:42.098Z,98428.92
2019-01-18T06:13:11.016Z,98430.44
2019-01-18T06:15:40.569Z,98442.87
2019-01-18T06:18:09.675Z,98437.59
2019-01-18T06:20:38.536Z,98443.16
2019-01-18T06:23:07.429Z,98446.50
2019-01-18T06:25:36.316Z,98455.13
2019-01-18T06:28:05.401Z,98455.09
2019-01-18T06:30:34.338Z,98469.57
2019-01-18T06:33:03.286Z,98477.19
2019-01-18T06:35:32.098Z,98482.30
2019-01-18T06:38:01.326Z,98487.31
2019-01-18T06:40:31.189Z,98496.36
2019-01-18T06:43:00.051Z,98503.56
2019-01-18T06:45:29.598Z,98508.98
2019-01-18T06:47:58.551Z,98506.06
2019-01-18T06:50:27.558Z,98507.70
2019-01-18T06:52:56.506Z,98504.11
2019-01-18T06:55:25.387Z,98506.38
2019-01-18T06:57:54.453Z,98513.23
2019-01-18T07:00:25.923Z,98519.90
2019-01-18T07:02:55.070Z,98519.90
2019-01-18T07:05:23.911Z,98527.66
2019-01-18T07:07:53.057Z,98537.49
2019-01-18T07:10:22.284Z,98545.07
2019-01-18T07:12:51.277Z,98550.94
2019-01-18T07:15:20.403Z,98553.17
2019-01-18T07:17:49.560Z,98556.91
2019-01-18T07:20:19.028Z,98552.49
2019-01-18T07:22:48.206Z,98553.40
2019-01-18T07:25:28.252Z,98554.34
2019-01-18T07:27:57.158Z,98556.91
2019-01-18T07:30:31.375Z,98552.59
2019-01-18T07:33:00.323Z,98559.83
2019-01-18T07:35:29.527Z,98567.05
2019-01-18T07:37:58.541Z,98577.50
2019-01-18T07:40:27.892Z,98588.73
2019-01-18T07:42:57.021Z,98593.02
2019-01-18T07:45:27.661Z,98602.28
2019-01-18T07:47:56.817Z,98610.00
2019-01-18T07:50:25.969Z,98609.28
2019-01-18T07:52:55.323Z,98615.45
2019-01-18T07:55:24.302Z,98617.19
2019-01-18T07:57:53.379Z,98614.16
2019-01-18T08:00:24.859Z,98613.78
2019-01-18T08:02:53.896Z,98629.23
2019-01-18T08:05:24.645Z,98628.84
2019-01-18T08:07:54.060Z,98630.55
2019-01-18T08:10:23.135Z,98639.30
2019-01-18T08:12:52.102Z,98643.19
2019-01-18T08:15:22.861Z,98647.13
2019-01-18T08:17:52.082Z,98652.02
2019-01-18T08:20:23.065Z,98653.42
2019-01-18T08:22:52.317Z,98660.88
2019-01-18T08:25:21.363Z,98663.18
2019-01-18T08:27:50.362Z,98671.06
2019-01-18T08:30:24.063Z,98671.80
2019-01-18T08:32:53.106Z,98679.56
2019-01-18T08:35:23.071Z,98677.22
2019-01-18T08:37:52.129Z,98679.70
2019-01-18T08:40:35.642Z,98685.83
2019-01-18T08:43:05.742Z,98688.63
2019-01-18T08:45:58.297Z,98686.84
2019-01-18T08:48:27.152Z,98685.48
2019-01-18T08:50:56.101Z,98685.98
2019-01-18T08:53:25.563Z,98694.02
2019-01-18T08:55:54.840Z,98703.45
2019-01-18T08:58:23.775Z,98702.98
2019-01-18T09:00:52.759Z,98707.69
2019-01-18T09:03:21.857Z,98706.81
2019-01-18T09:05:50.803Z,98707.56
2019-01-18T09:08:19.599Z,98716.86
2019-01-18T09:10:48.655Z,98720.81
2019-01-18T09:13:18.431Z,98726.64
2019-01-18T09:15:47.642Z,98736.39
2019-01-18T09:18:17.062Z,98743.36
2019-01-18T09:20:46.432Z,98739.41
2019-01-18T09:23:15.744Z,98734.50
2019-01-18T09:25:46.517Z,98744.41
2019-01-18T09:28:16.144Z,98741.31
2019-01-18T09:30:45.436Z,98742.53
2019-01-18T09:33:14.574Z,98753.64
2019-01-18T09:35:44.240Z,98755.11
2019-01-18T09:38:17.877Z,98752.40
2019-01-18T09:40:46.506Z,98760.20
2019-01-18T09:43:15.761Z,98762.83
2019-01-18T09:45:44.633Z,98757.77
2019-01-18T09:48:13.559Z,98768.77
2019-01-18T09:50:42.611Z,98770.11
2019-01-18T09:53:11.946Z,98772.22
2019-01-18T09:55:40.747Z,98771.41
2019-01-18T09:58:09.622Z,98780.28
2019-01-18T10:00:39.306Z,98783.68
2019-01-18T10:03:08.288Z,98772.05
2019-01-18T10:05:37.197Z,98770.31
2019-01-18T10:08:07.790Z,98777.12
2019-01-18T10:10:36.673Z,98769.65
2019-01-18T10:13:05.654Z,98769.65
2019-01-18T10:15:45.736Z,98765.96
2019-01-18T10:18:15.302Z,98766.72
2019-01-18T10:20:44.498Z,98764.05
2019-01-18T10:23:13.616Z,98761.97
2019-01-18T10:25:42.843Z,98760.33
2019-01-18T10:28:12.166Z,98758.27
2019-01-18T10:30:41.661Z,98757.20
2019-01-18T10:33:10.934Z,98766.23
2019-01-18T10:35:40.133Z,98758.25
2019-01-18T10:38:09.362Z,98762.12
2019-01-18T10:40:38.880Z,98766.13
2019-01-18T10:43:08.460Z,98765.86
2019-01-18T10:45:37.903Z,98768.03
2019-01-18T10:48:08.588Z,98774.48
2019-01-18T10:50:40.738Z,98776.23
2019-01-18T10:53:10.239Z,98768.70
2019-01-18T10:55:39.261Z,98776.77
2019-01-18T10:58:08.600Z,98781.27
2019-01-18T11:00:37.638Z,98783.11
2019-01-18T11:03:06.645Z,98780.52
2019-01-18T11:05:35.863Z,98780.91
2019-01-18T11:08:04.987Z,98792.12
2019-01-18T11:10:34.105Z,98790.80
2019-01-18T11:13:03.990Z,98784.62
2019-01-18T11:15:35.980Z,98790.45
2019-01-18T11:18:03.596Z,98793.91
2019-01-18T11:20:48.031Z,98796.58
2019-01-18T11:23:16.930Z,98791.63
2019-01-18T11:25:45.934Z,98791.59
2019-01-18T11:28:14.896Z,98796.87
2019-01-18T11:30:43.996Z,98786.59
2019-01-18T11:33:13.007Z,98793.14
2019-01-18T11:35:53.624Z,98785.11
2019-01-18T11:38:33.815Z,98793.97
2019-01-18T11:41:02.710Z,98782.20
2019-01-18T11:43:31.732Z,98783.39
2019-01-18T11:46:00.696Z,98788.13
2019-01-18T11:48:29.628Z,98787.11
2019-01-18T11:50:58.712Z,98782.37
2019-01-18T11:53:28.244Z,98782.03
2019-01-18T11:55:57.147Z,98781.47
2019-01-18T11:58:26.124Z,98781.89
2019-01-18T12:00:55.041Z,98778.34
2019-01-18T12:03:24.310Z,98783.42
2019-01-18T12:05:53.430Z,98776.89
2019-01-18T12:08:22.554Z,98777.90
2019-01-18T12:10:51.506Z,98781.48
2019-01-18T12:13:20.443Z,98780.42
2019-01-18T12:15:49.477Z,98787.71
2019-01-18T12:18:18.378Z,98787.38
2019-01-18T12:20:47.251Z,98790.22
2019-01-18T12:23:16.203Z,98784.91
2019-01-18T12:25:45.148Z,98793.53
2019-01-18T12:28:14.103Z,98791.75
2019-01-18T12:30:43.029Z,98794.78
2019-01-18T12:33:11.913Z,98794.89
2019-01-18T12:35:43.016Z,98793.95
2019-01-18T12:38:11.980Z,98798.94
2019-01-18T12:40:40.951Z,98800.70
2019-01-18T12:43:09.908Z,98793.18
2019-01-18T12:45:39.015Z,98796.62
2019-01-18T12:48:08.017Z,98787.77
2019-01-18T12:50:38.629Z,98789.06
2019-01-18T12:53:08.383Z,98784.63
2019-01-18T12:55:37.614Z,98784.24
2019-01-18T12:58:08.770Z,98788.57
2019-01-18T13:00:37.774Z,98789.00
2019-01-18T13:03:07.512Z,98785.46
2019-01-18T13:05:51.043Z,98788.33
2019-01-18T13:08:21.950Z,98788.28
2019-01-18T13:10:52.504Z,98793.04
2019-01-18T13:13:21.803Z,98788.58
2019-01-18T13:16:19.209Z,98787.45
2019-01-18T13:18:51.037Z,98793.08
2019-01-18T13:21:20.319Z,98796.95
2019-01-18T13:23:49.496Z,98791.36
2019-01-18T13:26:19.459Z,98794.38
2019-01-18T13:28:49.725Z,98791.36
2019-01-18T13:31:19.071Z,98797.11
2019-01-18T13:33:48.602Z,98798.85
2019-01-18T13:36:17.930Z,98793.81
2019-01-18T13:38:48.821Z,98797.27
2019-01-18T13:41:18.177Z,98797.34
2019-01-18T13:43:47.729Z,98803.98
2019-01-18T13:46:17.102Z,98808.45
2019-01-18T13:48:46.849Z,98811.51
2019-01-18T13:51:16.441Z,98810.88
2019-01-18T13:53:46.459Z,98811.30
2019-01-18T13:56:15.988Z,98813.80
2019-01-18T13:58:45.891Z,98802.57
2019-01-18T14:01:15.414Z,98813.49
2019-01-18T14:03:45.795Z,98816.20
2019-01-18T14:06:15.588Z,98814.95
2019-01-18T14:08:44.880Z,98816.12
2019-01-18T14:11:22.913Z,98816.08
2019-01-18T14:13:52.333Z,98819.37
2019-01-18T14:16:22.679Z,98812.50
2019-01-18T14:18:54.353Z,98817.09
2019-01-18T14:21:24.672Z,98823.52
2019-01-18T14:23:53.917Z,98817.97
2019-01-18T14:26:23.427Z,98816.24
2019-01-18T14:28:52.748Z,98815.80
2019-01-18T14:31:22.029Z,98816.95
2019-01-18T14:33:51.587Z,98825.94
2019-01-18T14:36:22.356Z,98823.62
2019-01-18T14:38:51.556Z,98830.41
2019-01-18T14:41:22.224Z,98828.94
2019-01-18T14:43:52.146Z,98830.05
2019-01-18T14:46:21.681Z,98823.77
2019-01-18T14:48:54.018Z,98828.41
2019-01-18T14:51:23.850Z,98833.47
2019-01-18T14:53:52.996Z,98822.55
2019-01-18T14:56:23.388Z,98822.04
2019-01-18T14:59:06.646Z,98832.69
2019-01-18T15:01:35.615Z,98829.99
2019-01-18T15:04:07.686Z,98840.97
2019-01-18T15:06:36.812Z,98833.05
2019-01-18T15:09:09.326Z,98835.12
2019-01-18T15:11:38.331Z,98831.94
2019-01-18T15:14:07.632Z,98843.80
2019-01-18T15:16:37.216Z,98840.61
2019-01-18T15:19:06.689Z,98839.17
2019-01-18T15:21:35.641Z,98833.72
2019-01-18T15:24:04.687Z,98835.53
2019-01-18T15:26:33.798Z,98841.69
2019-01-18T15:29:03.288Z,98852.13
2019-01-18T15:31:32.330Z,98844.47
2019-01-18T15:34:01.407Z,98857.86
2019-01-18T15:36:30.461Z,98858.37
2019-01-18T15:38:59.323Z,98855.50
2019-01-18T15:41:28.517Z,98859.16
2019-01-18T15:43:59.227Z,98864.01
2019-01-18T15:46:28.447Z,98861.17
2019-01-18T15:48:57.588Z,98868.63
2019-01-18T15:51:26.644Z,98867.88
2019-01-18T15:53:55.652Z,98865.31
2019-01-18T15:56:24.932Z,98869.06
2019-01-18T15:58:53.927Z,98869.35
2019-01-18T16:01:23.494Z,98869.19
2019-01-18T16:03:52.709Z,98871.56
2019-01-18T16:06:21.738Z,98871.70
2019-01-18T16:08:50.732Z,98875.02
2019-01-18T16:11:19.767Z,98873.15
2019-01-18T16:13:48.646Z,98875.06
2019-01-18T16:16:30.269Z,98879.82
2019-01-18T16:19:00.459Z,98876.20
2019-01-18T16:21:29.638Z,98881.41
2019-01-18T16:23:58.708Z,98879.70
2019-01-18T16:26:27.696Z,98879.16
2019-01-18T16:29:03.188Z,98880.34
2019-01-18T16:31:32.351Z,98881.09
2019-01-18T16:34:02.329Z,98876.64
2019-01-18T16:36:31.815Z,98872.61
2019-01-18T16:39:01.278Z,98879.96
2019-01-18T16:41:33.168Z,98876.10
2019-01-18T16:44:03.078Z,98881.53
2019-01-18T16:46:38.304Z,98877.54
2019-01-18T16:49:10.787Z,98881.59
2019-01-18T16:51:40.405Z,98882.33
2019-01-18T16:54:09.482Z,98883.20
2019-01-18T16:56:42.056Z,98873.78
2019-01-18T16:59:11.973Z,98872.95
2019-01-18T17:01:41.477Z,98878.00
2019-01-18T17:04:10.979Z,98878.54
2019-01-18T17:06:40.438Z,98880.98
2019-01-18T17:09:10.042Z,98873.37
2019-01-18T17:11:38.940Z,98883.02
2019-01-18T17:17:48.156Z,98888.67
2019-01-18T17:20:23.258Z,98889.08
2019-01-18T17:22:52.246Z,98894.09
2019-01-18T17:25:21.194Z,98888.13
2019-01-18T17:32:11.025Z,98888.85
2019-01-18T17:49:06.255Z,98892.78
2019-01-18T17:55:26.308Z,98904.20
2019-01-18T18:17:17.585Z,98903.14
2019-01-18T18:30:30.277Z,98915.18
2019-01-18T18:37:05.643Z,98917.51
2019-01-18T18:43:52.324Z,98920.90
2019-01-18T18:47:15.422Z,98926.25
2019-01-18T19:00:35.221Z,98924.17
2019-01-18T19:03:27.574Z,98926.02
2019-01-18T19:15:31.948Z,98917.85
2019-01-18T19:32:27.705Z,98908.27
2019-01-18T19:35:28.846Z,98909.50
2019-01-18T19:58:40.694Z,98924.16
2019-01-18T20:04:39.343Z,98918.77
2019-01-18T20:07:40.148Z,98915.62
2019-01-18T20:14:37.010Z,98916.30
2019-01-18T20:34:31.157Z,98926.09
2019-01-18T20:55:10.390Z,98929.31
2019-01-18T20:57:50.890Z,98929.69
2019-01-18T21:00:45.473Z,98926.22
2019-01-18T21:03:28.533Z,98926.51
2019-01-18T21:06:34.493Z,98932.37
2019-01-18T21:09:31.395Z,98927.47
2019-01-18T21:12:23.403Z,98935.83
2019-01-18T21:15:07.778Z,98937.11
2019-01-18T21:18:09.588Z,98932.80
2019-01-18T21:42:26.683Z,98927.71
2019-01-18T21:59:19.869Z,98933.77
2019-01-18T22:02:12.702Z,98930.87
2019-01-18T22:11:26.750Z,98938.67
2019-01-18T22:14:40.806Z,98937.31
2019-01-18T22:17:35.288Z,98936.21
2019-01-18T22:20:50.646Z,98941.05
2019-01-18T22:30:17.831Z,98940.92
2019-01-18T22:33:00.053Z,98935.68
2019-01-18T22:35:55.199Z,98939.64
2019-01-18T22:39:08.377Z,98940.11
2019-01-18T22:42:29.098Z,98938.83
2019-01-18T22:45:44.451Z,98937.02
2019-01-18T22:48:52.551Z,98934.80
2019-01-18T22:51:57.612Z,98944.23
2019-01-18T22:55:20.353Z,98947.02
2019-01-18T22:58:38.353Z,98939.79
2019-01-18T23:01:53.251Z,98935.94
2019-01-18T23:05:00.595Z,98938.77
2019-01-18T23:11:31.035Z,98941.33
2019-01-18T23:24:46.528Z,98943.30
2019-01-18T23:28:08.315Z,98949.70
2019-01-18T23:30:46.776Z,98941.20
2019-01-18T23:33:37.444Z,98943.37
2019-01-18T23:54:32.896Z,98926.55
